createdAt,value
2022-10-01T00:01:30.987Z,12.94
2022-10-01T00:03:58.639Z,12.97
2022-10-01T00:06:26.102Z,12.99
2022-10-01T00:08:53.607Z,13.02
2022-10-01T00:11:24.319Z,13.04
2022-10-01T00:13:52.800Z,13.00
2022-10-01T00:16:26.390Z,13.04
2022-10-01T00:18:55.022Z,13.09
2022-10-01T00:21:26.353Z,13.09
2022-10-01T00:24:04.490Z,13.11
2022-10-01T00:26:38.921Z,13.12
2022-10-01T00:29:11.207Z,13.14
2022-10-01T00:31:39.248Z,13.13
2022-10-01T00:34:10.938Z,13.16
2022-10-01T00:36:38.501Z,13.17
2022-10-01T00:39:08.138Z,13.18
2022-10-01T00:41:38.502Z,13.14
2022-10-01T00:44:27.899Z,13.16
2022-10-01T00:46:58.797Z,13.16
2022-10-01T00:49:33.584Z,13.16
2022-10-01T00:52:08.095Z,13.21
2022-10-01T00:54:45.066Z,13.20
2022-10-01T00:57:19.062Z,13.19
2022-10-01T00:59:47.671Z,13.17
2022-10-01T01:02:15.629Z,13.19
2022-10-01T01:04:43.315Z,13.19
2022-10-01T01:07:13.608Z,13.19
2022-10-01T01:09:48.034Z,13.18
2022-10-01T01:12:24.806Z,13.18
2022-10-01T01:15:14.481Z,13.18
2022-10-01T01:18:14.997Z,13.18
2022-10-01T01:20:51.698Z,13.19
2022-10-01T01:23:19.146Z,13.17
2022-10-01T01:26:05.535Z,13.16
2022-10-01T01:28:45.038Z,13.16
2022-10-01T01:31:16.710Z,13.15
2022-10-01T01:33:49.785Z,13.15
2022-10-01T01:36:25.569Z,13.15
2022-10-01T01:38:58.332Z,13.14
2022-10-01T01:41:30.333Z,13.16
2022-10-01T01:44:02.211Z,13.12
2022-10-01T01:46:36.014Z,13.11
2022-10-01T01:49:05.272Z,13.11
2022-10-01T01:51:49.025Z,13.11
2022-10-01T01:54:18.909Z,13.10
2022-10-01T01:56:50.209Z,13.12
2022-10-01T01:59:19.815Z,13.12
2022-10-01T02:01:49.600Z,13.12
2022-10-01T02:04:21.885Z,13.10
2022-10-01T02:06:58.552Z,13.10
2022-10-01T02:09:36.293Z,13.09
2022-10-01T02:12:19.733Z,13.08
2022-10-01T02:14:57.697Z,13.07
2022-10-01T02:17:38.523Z,13.04
2022-10-01T02:20:19.338Z,13.04
2022-10-01T02:22:55.159Z,12.97
2022-10-01T02:25:26.955Z,12.91
2022-10-01T02:28:01.562Z,12.91
2022-10-01T02:30:33.062Z,12.90
2022-10-01T02:33:03.631Z,12.90
2022-10-01T02:35:32.790Z,12.86
2022-10-01T02:38:03.524Z,12.87
2022-10-01T02:40:36.454Z,12.85
2022-10-01T02:43:12.463Z,12.86
2022-10-01T02:45:44.773Z,12.87
2022-10-01T02:48:18.071Z,12.87
2022-10-01T02:50:52.348Z,12.87
2022-10-01T02:53:39.078Z,12.89
2022-10-01T02:56:11.639Z,12.91
2022-10-01T02:58:42.008Z,12.93
2022-10-01T03:01:12.197Z,12.91
2022-10-01T03:03:43.013Z,12.94
2022-10-01T03:06:10.502Z,12.96
2022-10-01T03:08:37.983Z,12.98
2022-10-01T03:11:08.526Z,13.01
2022-10-01T03:13:38.133Z,13.02
2022-10-01T03:16:05.691Z,13.04
2022-10-01T03:18:33.241Z,13.05
2022-10-01T03:21:00.714Z,13.03
2022-10-01T03:23:29.226Z,13.03
2022-10-01T03:25:56.697Z,13.01
2022-10-01T03:28:26.722Z,13.02
2022-10-01T03:30:54.258Z,13.02
2022-10-01T03:33:21.804Z,13.01
2022-10-01T03:35:49.300Z,13.03
2022-10-01T03:38:18.915Z,13.04
2022-10-01T03:40:46.394Z,13.07
2022-10-01T03:43:13.877Z,13.07
2022-10-01T03:45:41.385Z,13.11
2022-10-01T03:48:08.876Z,13.11
2022-10-01T03:50:36.694Z,13.11
2022-10-01T03:53:06.782Z,13.11
2022-10-01T03:55:34.496Z,13.14
2022-10-01T03:58:02.245Z,13.13
2022-10-01T04:00:29.719Z,13.12
2022-10-01T04:02:57.219Z,13.13
2022-10-01T04:05:25.601Z,13.12
2022-10-01T04:07:53.294Z,13.14
2022-10-01T04:10:20.807Z,13.14
2022-10-01T04:12:48.338Z,13.14
2022-10-01T04:15:16.932Z,13.11
2022-10-01T04:17:46.108Z,13.12
2022-10-01T04:20:16.754Z,13.14
2022-10-01T04:22:44.938Z,13.14
2022-10-01T04:25:13.175Z,13.13
2022-10-01T04:27:42.270Z,13.18
2022-10-01T04:30:11.265Z,13.19
2022-10-01T04:32:39.322Z,13.16
2022-10-01T04:35:11.603Z,13.16
2022-10-01T04:37:40.551Z,13.18
2022-10-01T04:40:10.645Z,13.18
2022-10-01T04:42:43.691Z,13.20
2022-10-01T04:45:13.079Z,13.21
2022-10-01T04:47:52.163Z,13.22
2022-10-01T04:50:20.823Z,13.20
2022-10-01T04:52:48.805Z,13.20
2022-10-01T04:55:18.077Z,13.19
2022-10-01T04:57:48.618Z,13.20
2022-10-01T05:00:20.219Z,13.21
2022-10-01T05:02:51.455Z,13.21
2022-10-01T05:05:21.625Z,13.22
2022-10-01T05:07:50.070Z,13.23
2022-10-01T05:10:21.555Z,13.25
2022-10-01T05:12:51.720Z,13.25
2022-10-01T05:15:20.063Z,13.27
2022-10-01T05:17:49.959Z,13.27
2022-10-01T05:20:23.907Z,13.27
2022-10-01T05:22:51.389Z,13.30
2022-10-01T05:25:20.152Z,13.33
2022-10-01T05:27:48.480Z,13.33
2022-10-01T05:30:24.186Z,13.29
2022-10-01T05:32:57.099Z,13.36
2022-10-01T05:35:27.424Z,13.36
2022-10-01T05:38:00.868Z,13.40
2022-10-01T05:40:31.603Z,13.40
2022-10-01T05:43:03.128Z,13.41
2022-10-01T05:45:32.020Z,13.42
2022-10-01T05:48:06.965Z,13.42
2022-10-01T05:50:42.502Z,13.45
2022-10-01T05:53:13.976Z,13.46
2022-10-01T05:55:41.511Z,13.47
2022-10-01T05:58:12.402Z,13.46
2022-10-01T06:00:41.596Z,13.47
2022-10-01T06:03:13.662Z,13.48
2022-10-01T06:05:41.267Z,13.50
2022-10-01T06:08:11.619Z,13.50
2022-10-01T06:10:40.065Z,13.53
2022-10-01T06:13:08.369Z,13.55
2022-10-01T06:15:38.484Z,13.61
2022-10-01T06:18:11.268Z,13.69
2022-10-01T06:20:40.716Z,13.78
2022-10-01T06:23:12.241Z,13.87
2022-10-01T06:25:44.721Z,13.94
2022-10-01T06:28:14.882Z,13.96
2022-10-01T06:30:43.611Z,14.00
2022-10-01T06:33:14.651Z,14.01
2022-10-01T06:35:44.996Z,13.99
2022-10-01T06:38:12.918Z,14.02
2022-10-01T06:40:41.303Z,14.06
2022-10-01T06:43:10.438Z,14.08
2022-10-01T06:45:40.686Z,14.08
2022-10-01T06:48:09.082Z,14.10
2022-10-01T06:50:38.662Z,14.12
2022-10-01T06:53:06.245Z,14.16
2022-10-01T06:55:35.554Z,14.22
2022-10-01T06:58:07.726Z,14.25
2022-10-01T07:00:38.955Z,14.26
2022-10-01T07:03:12.946Z,14.23
2022-10-01T07:05:40.687Z,14.24
2022-10-01T07:08:08.945Z,14.15
2022-10-01T07:10:39.700Z,14.20
2022-10-01T07:13:12.570Z,14.25
2022-10-01T07:15:40.793Z,14.28
2022-10-01T07:18:10.675Z,14.32
2022-10-01T07:20:40.711Z,14.30
2022-10-01T07:23:14.716Z,14.29
2022-10-01T07:25:42.973Z,14.27
2022-10-01T07:28:18.076Z,14.24
2022-10-01T07:30:59.603Z,14.26
2022-10-01T07:33:30.165Z,14.31
2022-10-01T07:36:01.185Z,14.35
2022-10-01T07:38:28.736Z,14.42
2022-10-01T07:40:56.295Z,14.50
2022-10-01T07:43:23.802Z,14.60
2022-10-01T07:45:52.511Z,14.67
2022-10-01T07:48:20.273Z,14.70
2022-10-01T07:50:50.108Z,14.73
2022-10-01T07:53:18.446Z,14.76
2022-10-01T07:55:46.916Z,14.67
2022-10-01T07:58:14.447Z,14.63
2022-10-01T08:00:43.446Z,14.61
2022-10-01T08:03:12.686Z,14.66
2022-10-01T08:05:43.195Z,14.75
2022-10-01T08:08:10.809Z,14.78
2022-10-01T08:10:42.091Z,14.80
2022-10-01T08:13:17.403Z,14.81
2022-10-01T08:15:47.180Z,14.93
2022-10-01T08:18:17.437Z,15.00
2022-10-01T08:20:45.269Z,14.98
2022-10-01T08:23:14.801Z,14.99
2022-10-01T08:25:43.978Z,14.99
2022-10-01T08:28:13.539Z,14.99
2022-10-01T08:30:43.071Z,14.97
2022-10-01T08:33:14.553Z,15.01
2022-10-01T08:35:43.594Z,14.98
2022-10-01T08:38:14.399Z,15.01
2022-10-01T08:40:54.401Z,15.06
2022-10-01T08:43:40.004Z,15.07
2022-10-01T08:46:19.074Z,15.08
2022-10-01T08:49:06.739Z,14.99
2022-10-01T08:51:44.621Z,14.93
2022-10-01T08:54:34.760Z,14.95
2022-10-01T08:57:07.619Z,14.98
2022-10-01T08:59:41.695Z,15.02
2022-10-01T09:02:27.855Z,15.13
2022-10-01T09:05:04.949Z,15.18
2022-10-01T09:08:15.448Z,15.30
2022-10-01T09:10:48.477Z,15.45
2022-10-01T09:13:39.441Z,15.57
2022-10-01T09:16:30.369Z,15.50
2022-10-01T09:19:19.365Z,15.47
2022-10-01T09:22:02.102Z,15.60
2022-10-01T09:24:44.803Z,15.78
2022-10-01T09:27:26.852Z,16.72
2022-10-01T09:30:01.581Z,16.73
2022-10-01T09:32:37.998Z,16.60
2022-10-01T09:35:31.136Z,16.34
2022-10-01T09:38:06.501Z,16.28
2022-10-01T09:40:45.046Z,16.30
2022-10-01T09:43:14.176Z,16.49
2022-10-01T09:45:42.144Z,16.86
2022-10-01T09:48:50.019Z,16.79
2022-10-01T09:51:23.026Z,16.57
2022-10-01T09:54:04.421Z,16.53
2022-10-01T09:56:38.599Z,16.67
2022-10-01T09:59:15.749Z,17.07
2022-10-01T10:01:47.858Z,17.52
2022-10-01T10:04:23.234Z,18.13
2022-10-01T10:07:02.428Z,18.18
2022-10-01T10:09:36.116Z,18.17
2022-10-01T10:12:04.020Z,17.99
2022-10-01T10:14:40.818Z,17.63
2022-10-01T10:17:15.608Z,17.80
2022-10-01T10:19:51.680Z,18.00
2022-10-01T10:22:25.035Z,18.13
2022-10-01T10:24:58.985Z,18.35
2022-10-01T10:27:30.179Z,18.53
2022-10-01T10:30:19.376Z,18.81
2022-10-01T10:32:47.162Z,19.29
2022-10-01T10:35:26.242Z,20.27
2022-10-01T10:37:57.253Z,19.93
2022-10-01T10:40:34.401Z,19.78
2022-10-01T10:43:02.287Z,19.46
2022-10-01T10:45:41.886Z,19.05
2022-10-01T10:48:17.774Z,19.02
2022-10-01T10:50:47.497Z,20.02
2022-10-01T10:53:24.269Z,21.27
2022-10-01T10:55:58.424Z,21.21
2022-10-01T10:58:34.252Z,20.80
2022-10-01T11:01:09.758Z,21.52
2022-10-01T11:03:42.615Z,20.99
2022-10-01T11:06:12.762Z,20.94
2022-10-01T11:08:40.789Z,21.16
2022-10-01T11:11:21.087Z,21.14
2022-10-01T11:14:23.344Z,20.70
2022-10-01T11:17:18.985Z,19.89
2022-10-01T11:20:05.496Z,19.71
2022-10-01T11:22:43.530Z,19.69
2022-10-01T11:25:33.731Z,19.80
2022-10-01T11:28:12.590Z,20.07
2022-10-01T11:30:45.905Z,20.27
2022-10-01T11:33:28.415Z,20.47
2022-10-01T11:36:34.355Z,21.17
2022-10-01T11:39:12.023Z,21.93
2022-10-01T11:42:00.488Z,22.15
2022-10-01T11:44:35.633Z,22.05
2022-10-01T11:47:09.414Z,22.10
2022-10-01T11:49:36.875Z,22.00
2022-10-01T11:52:32.603Z,21.72
2022-10-01T11:55:30.379Z,21.63
2022-10-01T11:58:40.310Z,21.84
2022-10-01T12:01:18.755Z,20.98
2022-10-01T12:04:02.683Z,20.64
2022-10-01T12:06:49.435Z,20.32
2022-10-01T12:09:29.176Z,20.24
2022-10-01T12:12:13.727Z,20.06
2022-10-01T12:15:18.348Z,19.90
2022-10-01T12:17:56.985Z,19.82
2022-10-01T12:20:43.037Z,19.79
2022-10-01T12:23:22.750Z,19.67
2022-10-01T12:26:02.277Z,19.54
2022-10-01T12:28:39.948Z,19.56
2022-10-01T12:31:35.698Z,19.31
2022-10-01T12:34:45.385Z,19.30
2022-10-01T12:37:15.986Z,19.21
2022-10-01T12:39:48.059Z,19.10
2022-10-01T12:42:43.566Z,19.02
2022-10-01T12:45:28.969Z,19.02
2022-10-01T12:48:15.722Z,18.89
2022-10-01T12:51:03.799Z,18.84
2022-10-01T12:53:42.227Z,18.77
2022-10-01T12:56:30.919Z,18.74
2022-10-01T12:59:14.472Z,18.78
2022-10-01T13:02:17.170Z,18.95
2022-10-01T13:05:21.908Z,19.28
2022-10-01T13:08:11.377Z,20.01
2022-10-01T13:10:41.546Z,20.39
2022-10-01T13:13:14.082Z,20.21
2022-10-01T13:15:47.571Z,20.11
2022-10-01T13:18:32.599Z,19.84
2022-10-01T13:21:10.204Z,20.43
2022-10-01T13:23:58.145Z,20.55
2022-10-01T13:26:45.776Z,20.45
2022-10-01T13:29:36.102Z,20.12
2022-10-01T13:32:25.722Z,19.85
2022-10-01T13:34:54.059Z,19.76
2022-10-01T13:37:30.555Z,19.71
2022-10-01T13:40:01.319Z,19.62
2022-10-01T13:42:43.234Z,19.60
2022-10-01T13:45:25.113Z,19.56
2022-10-01T13:47:52.913Z,19.32
2022-10-01T13:50:25.560Z,19.02
2022-10-01T13:53:05.606Z,18.77
2022-10-01T13:55:33.742Z,18.29
2022-10-01T13:58:06.952Z,18.13
2022-10-01T14:00:34.844Z,18.27
2022-10-01T14:03:24.961Z,18.63
2022-10-01T14:05:58.918Z,18.85
2022-10-01T14:08:32.143Z,18.88
2022-10-01T14:11:28.329Z,18.98
2022-10-01T14:14:17.122Z,19.05
2022-10-01T14:16:48.642Z,18.91
2022-10-01T14:19:21.650Z,18.77
2022-10-01T14:21:55.810Z,18.76
2022-10-01T14:24:42.260Z,18.83
2022-10-01T14:27:42.159Z,18.83
2022-10-01T14:30:35.281Z,18.93
2022-10-01T14:34:19.102Z,18.96
2022-10-01T14:36:51.653Z,18.93
2022-10-01T14:39:22.952Z,18.87
2022-10-01T14:41:53.847Z,18.58
2022-10-01T14:44:39.844Z,18.38
2022-10-01T14:47:35.962Z,18.22
2022-10-01T14:50:12.254Z,18.05
2022-10-01T14:52:45.029Z,17.83
2022-10-01T14:55:19.380Z,17.68
2022-10-01T14:57:51.123Z,17.61
2022-10-01T15:00:21.881Z,17.56
2022-10-01T15:02:52.072Z,17.48
2022-10-01T15:05:32.820Z,17.36
2022-10-01T15:08:11.737Z,17.35
2022-10-01T15:11:07.190Z,17.25
2022-10-01T15:13:38.990Z,17.23
2022-10-01T15:16:21.820Z,17.16
2022-10-01T15:18:53.483Z,17.05
2022-10-01T15:21:27.775Z,16.93
2022-10-01T15:23:55.598Z,16.84
2022-10-01T15:26:27.503Z,16.69
2022-10-01T15:29:13.521Z,16.62
2022-10-01T15:31:42.092Z,16.55
2022-10-01T15:34:14.889Z,16.42
2022-10-01T15:36:44.180Z,16.35
2022-10-01T15:39:36.574Z,16.20
2022-10-01T15:42:09.510Z,16.11
2022-10-01T15:44:49.973Z,16.02
2022-10-01T15:47:20.617Z,16.00
2022-10-01T15:50:09.774Z,15.94
2022-10-01T15:52:53.012Z,15.81
2022-10-01T15:55:44.510Z,15.67
2022-10-01T15:58:12.189Z,15.56
2022-10-01T16:00:48.923Z,15.42
2022-10-01T16:03:23.357Z,15.35
2022-10-01T16:05:55.915Z,15.31
2022-10-01T16:08:26.609Z,15.28
2022-10-01T16:11:16.066Z,15.22
2022-10-01T16:13:52.732Z,15.13
2022-10-01T16:16:29.335Z,15.04
2022-10-01T16:19:18.697Z,14.87
2022-10-01T16:22:15.643Z,14.83
2022-10-01T16:24:45.694Z,14.66
2022-10-01T16:27:21.880Z,14.61
2022-10-01T16:30:00.127Z,14.52
2022-10-01T16:32:31.701Z,14.42
2022-10-01T16:35:36.115Z,14.40
2022-10-01T16:38:08.283Z,14.37
2022-10-01T16:40:40.189Z,14.33
2022-10-01T16:43:09.043Z,14.23
2022-10-01T16:45:40.268Z,14.13
2022-10-01T16:48:19.904Z,14.06
2022-10-01T16:50:48.079Z,13.98
2022-10-01T16:53:24.607Z,13.90
2022-10-01T16:55:52.713Z,13.82
2022-10-01T16:58:21.728Z,13.78
2022-10-01T17:00:52.012Z,13.71
2022-10-01T17:03:24.436Z,13.67
2022-10-01T17:05:52.002Z,13.58
2022-10-01T17:08:19.482Z,13.55
2022-10-01T17:10:51.303Z,13.49
2022-10-01T17:13:18.815Z,13.44
2022-10-01T17:15:48.063Z,13.40
2022-10-01T17:18:17.625Z,13.36
2022-10-01T17:20:45.999Z,13.34
2022-10-01T17:23:18.707Z,13.30
2022-10-01T17:25:47.109Z,13.30
2022-10-01T17:28:20.809Z,13.25
2022-10-01T17:30:50.094Z,13.21
2022-10-01T17:33:22.647Z,13.22
2022-10-01T17:35:54.551Z,13.17
2022-10-01T17:38:23.108Z,13.16
2022-10-01T17:40:56.307Z,13.14
2022-10-01T17:43:24.300Z,13.11
2022-10-01T17:45:57.603Z,13.11
2022-10-01T17:48:29.110Z,13.08
2022-10-01T17:51:15.778Z,13.08
2022-10-01T17:53:43.536Z,13.12
2022-10-01T17:56:17.842Z,13.13
2022-10-01T17:58:46.379Z,13.14
2022-10-01T18:01:22.263Z,13.20
2022-10-01T18:03:55.311Z,13.20
2022-10-01T18:06:24.008Z,13.22
2022-10-01T18:08:55.512Z,13.22
2022-10-01T18:11:25.539Z,13.19
2022-10-01T18:13:53.225Z,13.17
2022-10-01T18:16:23.679Z,13.34
2022-10-01T18:21:47.643Z,13.47
2022-10-01T18:24:18.577Z,13.37
2022-10-01T18:26:46.620Z,13.40
2022-10-01T18:29:23.390Z,13.45
2022-10-01T18:32:21.993Z,13.47
2022-10-01T18:35:01.452Z,13.44
2022-10-01T18:37:51.681Z,13.37
2022-10-01T18:40:41.413Z,13.40
2022-10-01T18:43:20.827Z,13.35
2022-10-01T18:46:09.777Z,13.25
2022-10-01T18:48:47.401Z,13.20
2022-10-01T18:51:26.731Z,13.15
2022-10-01T18:54:21.511Z,13.17
2022-10-01T18:57:18.669Z,13.18
2022-10-01T19:00:03.243Z,13.10
2022-10-01T19:03:06.455Z,13.11
2022-10-01T19:05:39.654Z,13.21
2022-10-01T19:08:13.513Z,13.23
2022-10-01T19:10:59.834Z,13.29
2022-10-01T19:13:34.662Z,13.29
2022-10-01T19:16:14.104Z,13.31
2022-10-01T19:18:55.071Z,13.36
2022-10-01T19:21:33.002Z,13.45
2022-10-01T19:24:12.431Z,13.51
2022-10-01T19:26:44.242Z,13.55
2022-10-01T19:29:23.742Z,13.50
2022-10-01T19:32:04.909Z,13.50
2022-10-01T19:34:45.402Z,13.47
2022-10-01T19:37:28.801Z,13.44
2022-10-01T19:40:08.693Z,13.39
2022-10-01T19:42:41.401Z,13.37
2022-10-01T19:45:27.288Z,13.34
2022-10-01T19:48:03.870Z,13.39
2022-10-01T19:50:35.332Z,13.40
2022-10-01T19:53:05.576Z,13.48
2022-10-01T19:55:39.757Z,13.52
2022-10-01T19:58:18.607Z,13.56
2022-10-01T20:00:49.240Z,13.53
2022-10-01T20:03:34.851Z,13.52
2022-10-01T20:06:08.710Z,13.51
2022-10-01T20:08:46.174Z,13.48
2022-10-01T20:11:41.851Z,13.51
2022-10-01T20:14:41.966Z,13.49
2022-10-01T20:17:39.113Z,13.51
2022-10-01T20:20:18.794Z,13.46
2022-10-01T20:23:23.969Z,13.43
2022-10-01T20:26:04.867Z,13.43
2022-10-01T20:28:54.536Z,13.39
2022-10-01T20:31:27.945Z,13.37
2022-10-01T20:34:09.962Z,13.33
2022-10-01T20:36:56.771Z,13.31
2022-10-01T20:39:35.206Z,13.27
2022-10-01T20:42:04.625Z,13.24
2022-10-01T20:44:37.398Z,13.22
2022-10-01T20:47:12.424Z,13.17
2022-10-01T20:49:56.915Z,13.17
2022-10-01T20:52:24.368Z,13.13
2022-10-01T20:54:54.853Z,13.10
2022-10-01T20:57:31.589Z,13.07
2022-10-01T21:00:07.704Z,13.02
2022-10-01T21:02:50.987Z,12.98
2022-10-01T21:05:34.666Z,12.94
2022-10-01T21:08:05.226Z,12.87
2022-10-01T21:10:49.097Z,12.83
2022-10-01T21:13:23.740Z,12.77
2022-10-01T21:16:03.473Z,12.68
2022-10-01T21:18:43.111Z,12.70
2022-10-01T21:21:23.271Z,12.67
2022-10-01T21:24:10.169Z,12.64
2022-10-01T21:26:54.725Z,12.55
2022-10-01T21:29:28.995Z,12.46
2022-10-01T21:32:20.223Z,12.40
2022-10-01T21:34:50.723Z,12.31
2022-10-01T21:37:31.687Z,12.19
2022-10-01T21:40:52.050Z,12.11
2022-10-01T21:43:43.798Z,11.97
2022-10-01T21:46:37.877Z,11.84
2022-10-01T21:49:12.550Z,11.76
2022-10-01T21:52:17.716Z,11.74
2022-10-01T21:55:03.038Z,11.73
2022-10-01T21:57:51.650Z,11.68
2022-10-01T22:00:28.868Z,11.65
2022-10-01T22:03:11.668Z,11.61
2022-10-01T22:05:41.988Z,11.57
2022-10-01T22:08:12.391Z,11.49
2022-10-01T22:10:44.116Z,11.44
2022-10-01T22:13:24.525Z,11.36
2022-10-01T22:15:57.472Z,11.33
2022-10-01T22:18:36.905Z,11.39
2022-10-01T22:21:10.146Z,11.38
2022-10-01T22:23:41.670Z,11.33
2022-10-01T22:26:17.531Z,11.32
2022-10-01T22:28:53.861Z,11.37
2022-10-01T22:31:28.734Z,11.39
2022-10-01T22:34:02.815Z,11.37
2022-10-01T22:36:40.100Z,11.31
2022-10-01T22:39:22.414Z,11.26
2022-10-01T22:42:20.886Z,11.21
2022-10-01T22:44:48.414Z,11.12
2022-10-01T22:47:31.156Z,11.03
2022-10-01T22:50:24.762Z,11.00
2022-10-01T22:53:04.280Z,10.91
2022-10-01T22:55:42.615Z,10.87
2022-10-01T22:58:24.050Z,10.80
2022-10-01T23:01:05.616Z,10.83
2022-10-01T23:03:38.850Z,10.87
2022-10-01T23:06:10.809Z,10.92
2022-10-01T23:08:53.613Z,11.00
2022-10-01T23:11:24.119Z,11.06
2022-10-01T23:14:05.533Z,11.06
2022-10-01T23:16:53.010Z,11.11
2022-10-01T23:19:52.009Z,11.11
2022-10-01T23:22:28.525Z,11.13
2022-10-01T23:25:29.161Z,11.15
2022-10-01T23:28:33.759Z,11.12
2022-10-01T23:31:22.964Z,11.07
2022-10-01T23:34:20.139Z,11.01
2022-10-01T23:36:56.925Z,11.03
2022-10-01T23:39:33.326Z,11.12
2022-10-01T23:42:04.821Z,11.08
2022-10-01T23:44:43.329Z,11.08
2022-10-01T23:47:18.206Z,11.07
2022-10-01T23:49:54.251Z,11.07
2022-10-01T23:52:48.405Z,11.07
2022-10-01T23:55:40.418Z,11.11
2022-10-01T23:58:12.181Z,11.13
